| time (UTC) | temp F | wind direction | speed MPH | gust MPH | rain 1hr in | rain 24hr in | rain mn in | humidity % | barometer mb |
| 20260903102810 | 65 | 289 | 14.0 | 19.0 | 0.00 | 0.15 | 0.07 | 81 | 1010.8 |
| 20260903102308 | 65 | 264 | 13.0 | 19.0 | 0.00 | 0.15 | 0.07 | 83 | 1010.8 |
| 20260903101809 | 65 | 251 | 12.0 | 19.0 | 0.00 | 0.15 | 0.07 | 83 | 1010.8 |
| 20260903101309 | 65 | 238 | 9.0 | 18.0 | 0.00 | 0.15 | 0.07 | 85 | 1010.7 |
| 20260903100807 | 64 | 258 | 10.0 | 22.0 | 0.00 | 0.15 | 0.07 | 86 | 1010.8 |
| 20260903100307 | 64 | 262 | 13.0 | 26.0 | 0.00 | 0.15 | 0.07 | 85 | 1010.8 |
| 20260903095808 | 64 | 245 | 13.0 | 26.0 | 0.00 | 0.15 | 0.07 | 85 | 1010.8 |
| 20260903095533 | 64 | 259 | 11.0 | 21.0 | 0.00 | 0.15 | 0.07 | 87 | 1010.8 |
| 20260903094805 | 63 | 254 | 11.0 | 20.0 | 0.01 | 0.15 | 0.07 | 88 | 1010.7 |
| 20260903094304 | 63 | 245 | 11.0 | 20.0 | 0.02 | 0.15 | 0.07 | 88 | 1010.7 |
| 20260903094037 | 63 | 283 | 10.0 | 21.0 | 0.03 | 0.15 | 0.07 | 89 | 1010.7 |
| 20260903093305 | 63 | 274 | 10.0 | 21.0 | 0.04 | 0.15 | 0.07 | 90 | 1010.7 |
| 20260903092805 | 63 | 288 | 9.0 | 18.0 | 0.04 | 0.15 | 0.07 | 92 | 1010.7 |
| 20260903092306 | 61 | 288 | 8.0 | 19.0 | 0.04 | 0.15 | 0.07 | 92 | 1010.7 |
| 20260903091804 | 61 | 248 | 12.0 | 19.0 | 0.04 | 0.15 | 0.07 | 92 | 1010.7 |
| 20260903091305 | 61 | 283 | 8.0 | 12.0 | 0.04 | 0.15 | 0.07 | 93 | 1010.5 |
| 20260903090803 | 61 | 259 | 5.0 | 11.0 | 0.04 | 0.15 | 0.07 | 93 | 1010.5 |
| 20260903090532 | 61 | 235 | 6.0 | 11.0 | 0.04 | 0.15 | 0.07 | 93 | 1010.4 |
| 20260903085804 | 61 | 271 | 6.0 | 11.0 | 0.04 | 0.11 | 0.07 | 92 | 1010.4 |
| 20260903085306 | 61 | 276 | 6.0 | 11.0 | 0.04 | 0.11 | 0.07 | 92 | 1010.5 |
| 20260903084803 | 61 | 257 | 7.0 | 10.0 | 0.03 | 0.11 | 0.06 | 92 | 1010.5 |
| 20260903084303 | 61 | 248 | 7.0 | 14.0 | 0.02 | 0.11 | 0.04 | 91 | 1010.4 |
| 20260903083805 | 61 | 252 | 8.0 | 14.0 | 0.01 | 0.11 | 0.04 | 91 | 1010.2 |
| 20260903083304 | 61 | 245 | 7.0 | 12.0 | 0.00 | 0.11 | 0.03 | 91 | 1010.2 |
| 20260903082804 | 61 | 292 | 9.0 | 12.0 | 0.00 | 0.11 | 0.03 | 91 | 1010.3 |
| 20260903082529 | 61 | 254 | 6.0 | 13.0 | 0.00 | 0.11 | 0.03 | 91 | 1010.2 |
| 20260903081804 | 61 | 250 | 6.0 | 14.0 | 0.00 | 0.11 | 0.03 | 90 | 1010.3 |
| 20260903081303 | 61 | 250 | 7.0 | 14.0 | 0.00 | 0.11 | 0.03 | 90 | 1010.2 |
| 20260903080804 | 61 | 283 | 8.0 | 13.0 | 0.00 | 0.11 | 0.03 | 90 | 1010.3 |
| 20260903080304 | 61 | 286 | 8.0 | 13.0 | 0.00 | 0.11 | 0.03 | 90 | 1010.3 |
| 20260903075804 | 61 | 269 | 7.0 | 16.0 | 0.00 | 0.11 | 0.03 | 91 | 1010.2 |
| 20260903075306 | 61 | 257 | 8.0 | 21.0 | 0.00 | 0.11 | 0.03 | 91 | 1010.2 |
| 20260903074304 | 61 | 244 | 9.0 | 18.0 | 0.01 | 0.11 | 0.03 | 91 | 1010.1 |
| 20260903073804 | 61 | 266 | 9.0 | 18.0 | 0.01 | 0.11 | 0.03 | 91 | 1010.0 |
| 20260903073305 | 61 | 230 | 8.0 | 18.0 | 0.01 | 0.11 | 0.03 | 92 | 1010.1 |
| 20260903072804 | 61 | 231 | 10.0 | 16.0 | 0.01 | 0.11 | 0.03 | 92 | 1010.1 |
| 20260903072306 | 61 | 258 | 8.0 | 17.0 | 0.01 | 0.11 | 0.03 | 92 | 1009.8 |
| 20260903071803 | 61 | 268 | 8.0 | 17.0 | 0.01 | 0.11 | 0.03 | 92 | 1009.7 |
| 20260903071303 | 61 | 258 | 11.0 | 16.0 | 0.01 | 0.11 | 0.03 | 92 | 1009.7 |
| 20260903070805 | 61 | 227 | 7.0 | 15.0 | 0.01 | 0.11 | 0.03 | 92 | 1009.6 |
| 20260903070304 | 61 | 279 | 8.0 | 15.0 | 0.01 | 0.11 | 0.03 | 92 | 1009.7 |
| 20260903065803 | 61 | 269 | 9.0 | 14.0 | 0.01 | 0.10 | 0.03 | 92 | 1009.6 |
| 20260903065306 | 61 | 264 | 6.0 | 15.0 | 0.01 | 0.10 | 0.03 | 92 | 1009.6 |
| 20260903064805 | 61 | 274 | 9.0 | 15.0 | 0.00 | 0.10 | 0.02 | 91 | 1009.6 |
| 20260903064303 | 61 | 282 | 8.0 | 13.0 | 0.00 | 0.10 | 0.02 | 91 | 1009.6 |
| 20260903063803 | 61 | 240 | 8.0 | 16.0 | 0.00 | 0.10 | 0.02 | 91 | 1009.2 |
| 20260903063304 | 61 | 285 | 10.0 | 19.0 | 0.00 | 0.10 | 0.02 | 91 | 1009.2 |
| 20260903062804 | 61 | 293 | 11.0 | 19.0 | 0.00 | 0.10 | 0.02 | 91 | 1009.3 |
| 20260903062306 | 61 | 258 | 11.0 | 17.0 | 0.00 | 0.10 | 0.02 | 91 | 1009.0 |
| 20260903061804 | 61 | 283 | 6.0 | 17.0 | 0.00 | 0.10 | 0.02 | 91 | 1009.0 |
| 20260903061303 | 61 | 245 | 9.0 | 17.0 | 0.00 | 0.10 | 0.02 | 91 | 1009.0 |
| 20260903060804 | 61 | 290 | 9.0 | 16.0 | 0.00 | 0.10 | 0.02 | 92 | 1008.9 |
| 20260903060304 | 61 | 244 | 8.0 | 16.0 | 0.00 | 0.10 | 0.02 | 92 | 1008.9 |
| 20260903060039 | 61 | 254 | 6.0 | 19.0 | 0.00 | 0.10 | 0.02 | 92 | 1008.8 |
| 20260903055306 | 61 | 231 | 10.0 | 22.0 | 0.01 | 0.10 | 0.02 | 92 | 1008.8 |
| 20260903054807 | 61 | 252 | 10.0 | 22.0 | 0.01 | 0.10 | 0.02 | 92 | 1008.9 |
| 20260903054532 | 61 | 293 | 11.0 | 18.0 | 0.01 | 0.10 | 0.02 | 92 | 1008.8 |
| 20260903053803 | 61 | 245 | 10.0 | 20.0 | 0.01 | 0.10 | 0.02 | 92 | 1008.8 |
| 20260903053304 | 61 | 275 | 11.0 | 20.0 | 0.02 | 0.10 | 0.02 | 92 | 1008.8 |
| 20260903052804 | 61 | 285 | 11.0 | 17.0 | 0.02 | 0.10 | 0.02 | 92 | 1008.8 |
| 20260903052307 | 61 | 244 | 9.0 | 18.0 | 0.02 | 0.10 | 0.02 | 92 | 1008.8 |
| 20260903051805 | 61 | 245 | 11.0 | 18.0 | 0.02 | 0.10 | 0.02 | 92 | 1008.8 |
| 20260903051304 | 61 | 254 | 9.0 | 19.0 | 0.02 | 0.10 | 0.02 | 91 | 1008.9 |
| 20260903050805 | 62 | 251 | 10.0 | 19.0 | 0.02 | 0.10 | 0.02 | 91 | 1008.8 |
| 20260903050319 | 62 | 241 | 13.0 | 20.0 | 0.02 | 0.10 | 0.02 | 91 | 1008.7 |
| 20260903050043 | 62 | 262 | 13.0 | 20.0 | 0.02 | 0.09 | 0.02 | 91 | 1008.8 |
| 20260903045306 | 62 | 231 | 9.0 | 14.0 | 0.01 | 0.09 | 0.02 | 91 | 1008.8 |
| 20260903044803 | 62 | 259 | 7.0 | 18.0 | 0.01 | 0.09 | 0.02 | 91 | 1009.0 |
| 20260903044303 | 62 | 275 | 10.0 | 18.0 | 0.01 | 0.09 | 0.02 | 91 | 1009.0 |
| 20260903043803 | 62 | 248 | 9.0 | 17.0 | 0.01 | 0.09 | 0.02 | 91 | 1009.0 |
| 20260903043306 | 62 | 286 | 10.0 | 16.0 | 0.00 | 0.09 | 0.01 | 91 | 1008.8 |
| 20260903042804 | 62 | 243 | 9.0 | 20.0 | 0.00 | 0.09 | 0.01 | 91 | 1008.7 |
| 20260903042306 | 62 | 261 | 12.0 | 20.0 | 0.00 | 0.09 | 0.01 | 90 | 1008.7 |
| 20260903041803 | 62 | 258 | 11.0 | 19.0 | 0.00 | 0.09 | 0.01 | 91 | 1008.6 |
| 20260903041030 | 63 | 276 | 10.0 | 18.0 | 0.00 | 0.09 | 0.01 | 91 | 1008.6 |
| 20260903040312 | 63 | 309 | 10.0 | 19.0 | 0.00 | 0.09 | 0.01 | 92 | 1008.7 |
| 20260903035809 | 63 | 238 | 11.0 | 19.0 | 0.00 | 0.09 | 0.01 | 92 | 1008.6 |
| 20260903034804 | 63 | 265 | 10.0 | 18.0 | 0.00 | 0.09 | 0.01 | 92 | 1008.7 |
| 20260903034304 | 63 | 247 | 11.0 | 18.0 | 0.00 | 0.09 | 0.01 | 93 | 1008.4 |
| 20260903033805 | 63 | 248 | 7.0 | 17.0 | 0.00 | 0.09 | 0.01 | 93 | 1008.4 |
| 20260903033305 | 63 | 237 | 10.0 | 17.0 | 0.00 | 0.09 | 0.01 | 93 | 1008.3 |
| 20260903032803 | 63 | 247 | 7.0 | 14.0 | 0.00 | 0.09 | 0.01 | 93 | 1008.5 |
| 20260903032305 | 63 | 240 | 7.0 | 14.0 | 0.00 | 0.09 | 0.01 | 93 | 1008.2 |
| 20260903031807 | 63 | 262 | 8.0 | 12.0 | 0.00 | 0.09 | 0.01 | 93 | 1008.3 |
| 20260903031304 | 63 | 252 | 7.0 | 14.0 | 0.00 | 0.09 | 0.01 | 93 | 1008.3 |
| 20260903030803 | 63 | 276 | 7.0 | 18.0 | 0.00 | 0.09 | 0.01 | 93 | 1008.4 |
| 20260903030303 | 63 | 269 | 7.0 | 18.0 | 0.00 | 0.09 | 0.01 | 93 | 1008.4 |
| 20260903025804 | 63 | 275 | 9.0 | 17.0 | 0.00 | 0.09 | 0.01 | 93 | 1008.4 |
| 20260903025522 | 63 | 241 | 9.0 | 16.0 | 0.00 | 0.09 | 0.01 | 92 | 1008.4 |
| 20260903024803 | 63 | 248 | 9.0 | 16.0 | 0.00 | 0.09 | 0.01 | 92 | 1008.3 |
| 20260903024303 | 63 | 258 | 8.0 | 17.0 | 0.00 | 0.09 | 0.01 | 92 | 1008.2 |
| 20260903024026 | 63 | 261 | 9.0 | 17.0 | 0.00 | 0.09 | 0.01 | 92 | 1008.2 |
| 20260903023304 | 63 | 240 | 10.0 | 18.0 | 0.00 | 0.09 | 0.01 | 92 | 1008.2 |
| 20260903023027 | 63 | 251 | 11.0 | 21.0 | 0.00 | 0.09 | 0.01 | 92 | 1008.1 |
| 20260903022306 | 63 | 275 | 12.0 | 21.0 | 0.00 | 0.09 | 0.01 | 92 | 1008.2 |
| 20260903021805 | 63 | 266 | 8.0 | 18.0 | 0.00 | 0.09 | 0.01 | 93 | 1008.1 |
| 20260903021304 | 63 | 241 | 10.0 | 15.0 | 0.00 | 0.09 | 0.01 | 93 | 1008.3 |
| 20260903020803 | 63 | 233 | 9.0 | 15.0 | 0.00 | 0.09 | 0.01 | 93 | 1008.5 |
| 20260903020304 | 63 | 268 | 7.0 | 14.0 | 0.00 | 0.09 | 0.01 | 93 | 1008.5 |
| 20260903015803 | 63 | 230 | 10.0 | 14.0 | 0.00 | 0.09 | 0.01 | 94 | 1008.6 |
| 20260903015306 | 63 | 259 | 9.0 | 14.0 | 0.00 | 0.09 | 0.01 | 94 | 1008.5 |
| 20260903015039 | 63 | 241 | 8.0 | 14.0 | 0.00 | 0.09 | 0.01 | 94 | 1008.5 |
| 20260903014304 | 63 | 258 | 5.0 | 12.0 | 0.00 | 0.09 | 0.01 | 94 | 1008.4 |
| 20260903013803 | 63 | 243 | 6.0 | 11.0 | 0.00 | 0.09 | 0.01 | 94 | 1008.5 |
| 20260903013305 | 63 | 234 | 5.0 | 11.0 | 0.00 | 0.09 | 0.01 | 94 | 1008.4 |
| 20260903012804 | 63 | 237 | 6.0 | 14.0 | 0.00 | 0.09 | 0.01 | 94 | 1008.5 |
| 20260903012306 | 63 | 221 | 7.0 | 14.0 | 0.00 | 0.09 | 0.01 | 94 | 1008.5 |
| 20260903011804 | 63 | 228 | 4.0 | 10.0 | 0.00 | 0.09 | 0.01 | 94 | 1008.4 |
| 20260903011523 | 63 | 214 | 5.0 | 14.0 | 0.00 | 0.09 | 0.01 | 94 | 1008.5 |
| 20260903010804 | 63 | 252 | 6.0 | 14.0 | 0.00 | 0.09 | 0.01 | 94 | 1008.5 |
| 20260903010305 | 63 | 243 | 7.0 | 12.0 | 0.00 | 0.09 | 0.01 | 94 | 1008.4 |
| 20260903010044 | 63 | 245 | 6.0 | 12.0 | 0.00 | 0.09 | 0.01 | 94 | 1008.4 |
| 20260903005306 | 63 | 245 | 4.0 | 6.0 | 0.00 | 0.09 | 0.01 | 94 | 1008.6 |
| 20260903004805 | 63 | 237 | 3.0 | 9.0 | 0.00 | 0.09 | 0.01 | 94 | 1008.6 |
| 20260903004534 | 63 | 224 | 5.0 | 10.0 | 0.00 | 0.09 | 0.01 | 94 | 1008.6 |
| 20260903003804 | 63 | 227 | 4.0 | 10.0 | 0.00 | 0.09 | 0.01 | 94 | 1008.6 |
| 20260903003303 | 63 | 241 | 4.0 | 10.0 | 0.00 | 0.09 | 0.01 | 94 | 1008.5 |
| 20260903003028 | 63 | 228 | 3.0 | 7.0 | 0.00 | 0.09 | 0.01 | 94 | 1008.9 |
| 20260903002306 | 63 | 255 | 5.0 | 7.0 | 0.00 | 0.09 | 0.01 | 94 | 1008.8 |
| 20260903001803 | 63 | 221 | 5.0 | 7.0 | 0.00 | 0.09 | 0.01 | 94 | 1008.9 |
| 20260903001304 | 63 | 233 | 4.0 | 6.0 | 0.01 | 0.09 | 0.01 | 94 | 1009.1 |
| 20260903000803 | 63 | 230 | 4.0 | 6.0 | 0.01 | 0.09 | 0.01 | 94 | 1009.0 |
| 20260903000308 | 63 | 233 | 5.0 | 10.0 | 0.01 | 0.09 | 0.01 | 94 | 1009.0 |
| 20260902235804 | 63 | 230 | 4.0 | 13.0 | 0.01 | 0.08 | 0.01 | 95 | 1009.0 |
| 20260902235305 | 63 | 262 | 5.0 | 13.0 | 0.01 | 0.08 | 0.01 | 95 | 1009.0 |
| 20260902234804 | 63 | 243 | 5.0 | 13.0 | 0.01 | 0.08 | 0.01 | 95 | 1008.9 |
| 20260902234303 | 63 | 271 | 6.0 | 13.0 | 0.01 | 0.08 | 0.01 | 95 | 1009.0 |
| 20260902233802 | 62 | 231 | 7.0 | 13.0 | 0.01 | 0.08 | 0.01 | 95 | 1009.0 |
| 20260902233302 | 62 | 268 | 6.0 | 16.0 | 0.01 | 0.08 | 0.01 | 95 | 1009.2 |
| 20260902232804 | 62 | 243 | 8.0 | 16.0 | 0.01 | 0.08 | 0.01 | 95 | 1009.0 |
| 20260902232306 | 62 | 227 | 8.0 | 12.0 | 0.01 | 0.08 | 0.01 | 95 | 1009.0 |
| 20260902232021 | 62 | 244 | 7.0 | 16.0 | 0.01 | 0.08 | 0.01 | 95 | 1009.1 |
| 20260902231257 | 62 | 238 | 9.0 | 16.0 | 0.00 | 0.08 | 0.00 | 95 | 1009.0 |
| 20260902230757 | 62 | 233 | 6.0 | 13.0 | 0.00 | 0.08 | 0.00 | 95 | 1009.0 |
| 20260902230255 | 62 | 214 | 7.0 | 13.0 | 0.00 | 0.08 | 0.00 | 95 | 1009.1 |
| 20260902225755 | 62 | 228 | 8.0 | 17.0 | 0.00 | 0.08 | 0.08 | 95 | 1009.0 |
| 20260902225256 | 62 | 193 | 9.0 | 17.0 | 0.00 | 0.08 | 0.08 | 95 | 1008.8 |
| 20260902224753 | 62 | 224 | 8.0 | 16.0 | 0.00 | 0.08 | 0.08 | 95 | 1008.7 |
| 20260902224254 | 62 | 226 | 7.0 | 19.0 | 0.00 | 0.08 | 0.08 | 95 | 1008.7 |
| 20260902223754 | 62 | 248 | 11.0 | 19.0 | 0.00 | 0.08 | 0.08 | 95 | 1008.8 |
| 20260902223257 | 62 | 202 | 9.0 | 15.0 | 0.00 | 0.08 | 0.08 | 95 | 1008.9 |
| 20260902222752 | 62 | 216 | 5.0 | 12.0 | 0.00 | 0.08 | 0.08 | 95 | 1009.0 |
| 20260902222251 | 62 | 224 | 6.0 | 13.0 | 0.00 | 0.08 | 0.08 | 95 | 1009.1 |
| 20260902221752 | 62 | 200 | 5.0 | 13.0 | 0.00 | 0.08 | 0.08 | 95 | 1009.0 |
| 20260902221249 | 62 | 197 | 7.0 | 13.0 | 0.00 | 0.08 | 0.08 | 95 | 1009.1 |
| 20260902220748 | 62 | 240 | 6.0 | 13.0 | 0.00 | 0.08 | 0.08 | 96 | 1009.0 |
| 20260902220248 | 62 | 274 | 8.0 | 12.0 | 0.00 | 0.08 | 0.08 | 96 | 1009.1 |
| 20260902215747 | 62 | 235 | 6.0 | 10.0 | 0.00 | 0.08 | 0.08 | 95 | 1009.2 |
| 20260902215247 | 62 | 234 | 5.0 | 11.0 | 0.00 | 0.08 | 0.08 | 96 | 1009.2 |
| 20260902214746 | 62 | 234 | 5.0 | 12.0 | 0.00 | 0.08 | 0.08 | 96 | 1009.1 |
| 20260902214247 | 62 | 255 | 5.0 | 12.0 | 0.00 | 0.08 | 0.08 | 96 | 1009.1 |
| 20260902214014 | 62 | 230 | 6.0 | 12.0 | 0.00 | 0.08 | 0.08 | 96 | 1009.2 |
| 20260902213246 | 62 | 245 | 6.0 | 14.0 | 0.00 | 0.08 | 0.08 | 96 | 1009.3 |
| 20260902212744 | 62 | 251 | 6.0 | 14.0 | 0.00 | 0.08 | 0.08 | 96 | 1009.4 |
| 20260902212243 | 62 | 230 | 6.0 | 12.0 | 0.00 | 0.08 | 0.08 | 96 | 1009.3 |
| 20260902211743 | 62 | 226 | 4.0 | 10.0 | 0.00 | 0.08 | 0.08 | 96 | 1009.2 |
| 20260902211244 | 62 | 233 | 5.0 | 12.0 | 0.00 | 0.08 | 0.08 | 96 | 1009.2 |
| 20260902210744 | 62 | 221 | 6.0 | 12.0 | 0.00 | 0.08 | 0.08 | 96 | 1009.2 |
| 20260902210243 | 62 | 226 | 4.0 | 6.0 | 0.00 | 0.08 | 0.08 | 96 | 1009.1 |
| 20260902205740 | 62 | 217 | 2.0 | 10.0 | 0.00 | 0.08 | 0.08 | 96 | 1009.2 |
| 20260902205239 | 62 | 204 | 3.0 | 10.0 | 0.00 | 0.08 | 0.08 | 96 | 1009.2 |
| 20260902205006 | 62 | 262 | 3.0 | 9.0 | 0.00 | 0.08 | 0.08 | 96 | 1009.2 |
| 20260902204237 | 62 | 264 | 3.0 | 9.0 | 0.00 | 0.08 | 0.08 | 96 | 1009.1 |
| 20260902203737 | 62 | 209 | 4.0 | 7.0 | 0.00 | 0.08 | 0.08 | 96 | 1009.1 |
| 20260902203236 | 62 | 171 | 4.0 | 7.0 | 0.00 | 0.08 | 0.08 | 96 | 1009.2 |
| 20260902202735 | 62 | 197 | 2.0 | 6.0 | 0.01 | 0.08 | 0.08 | 96 | 1009.2 |
| 20260902202235 | 62 | 206 | 2.0 | 5.0 | 0.01 | 0.08 | 0.08 | 96 | 1009.1 |
| 20260902201954 | 62 | 206 | 3.0 | 5.0 | 0.01 | 0.08 | 0.08 | 96 | 1009.1 |
| 20260902201235 | 62 | 207 | 2.0 | 5.0 | 0.01 | 0.08 | 0.08 | 96 | 1009.1 |
| 20260902200733 | 62 | 206 | 3.0 | 5.0 | 0.01 | 0.08 | 0.08 | 96 | 1009.1 |
| 20260902200232 | 62 | 207 | 3.0 | 5.0 | 0.01 | 0.08 | 0.08 | 96 | 1009.2 |
| 20260902195955 | 62 | 207 | 2.0 | 3.0 | 0.01 | 0.07 | 0.08 | 95 | 1009.2 |
| 20260902195232 | 62 | 207 | 2.0 | 4.0 | 0.01 | 0.07 | 0.08 | 95 | 1009.2 |
| 20260902194734 | 62 | 207 | 3.0 | 4.0 | 0.01 | 0.07 | 0.08 | 95 | 1009.1 |
| 20260902194232 | 62 | 209 | 2.0 | 4.0 | 0.01 | 0.07 | 0.08 | 95 | 1009.2 |
| 20260902193732 | 62 | 209 | 2.0 | 5.0 | 0.01 | 0.07 | 0.08 | 95 | 1009.2 |
| 20260902193233 | 62 | 209 | 2.0 | 5.0 | 0.01 | 0.07 | 0.08 | 95 | 1009.2 |
| 20260902193023 | 62 | 212 | 4.0 | 4.0 | 0.00 | 0.07 | 0.07 | 95 | 1009.2 |
| 20260902192234 | 62 | 213 | 2.0 | 5.0 | 0.01 | 0.07 | 0.07 | 95 | 1009.2 |
| 20260902191733 | 62 | 213 | 2.0 | 5.0 | 0.01 | 0.07 | 0.07 | 95 | 1009.3 |
| 20260902191232 | 62 | 214 | 3.0 | 5.0 | 0.02 | 0.07 | 0.07 | 95 | 1009.3 |
| 20260902190732 | 62 | 216 | 2.0 | 6.0 | 0.02 | 0.07 | 0.07 | 95 | 1009.4 |
| 20260902190235 | 62 | 216 | 3.0 | 6.0 | 0.02 | 0.07 | 0.07 | 95 | 1009.4 |
| 20260902185732 | 62 | 199 | 2.0 | 5.0 | 0.02 | 0.05 | 0.07 | 95 | 1009.4 |
| 20260902185233 | 62 | 199 | 2.0 | 7.0 | 0.02 | 0.05 | 0.07 | 95 | 1009.4 |
| 20260902184734 | 62 | 200 | 3.0 | 7.0 | 0.02 | 0.05 | 0.07 | 95 | 1009.4 |
| 20260902184233 | 62 | 209 | 2.0 | 6.0 | 0.03 | 0.05 | 0.07 | 95 | 1009.4 |
| 20260902184000 | 62 | 206 | 2.0 | 7.0 | 0.03 | 0.05 | 0.07 | 95 | 1009.4 |
| 20260902183233 | 62 | 207 | 4.0 | 7.0 | 0.04 | 0.05 | 0.07 | 95 | 1009.4 |
| 20260902182732 | 62 | 197 | 4.0 | 6.0 | 0.05 | 0.05 | 0.07 | 95 | 1009.4 |
| 20260902182233 | 62 | 193 | 4.0 | 7.0 | 0.04 | 0.05 | 0.06 | 95 | 1009.4 |
| 20260902182004 | 62 | 195 | 4.0 | 7.0 | 0.04 | 0.05 | 0.06 | 95 | 1009.4 |
| 20260902181232 | 62 | 206 | 3.0 | 9.0 | 0.04 | 0.05 | 0.06 | 95 | 1009.4 |
| 20260902180734 | 62 | 206 | 4.0 | 9.0 | 0.03 | 0.05 | 0.05 | 95 | 1009.4 |
| 20260902180233 | 62 | 200 | 4.0 | 9.0 | 0.03 | 0.05 | 0.05 | 95 | 1009.4 |
| 20260902175733 | 62 | 197 | 4.0 | 9.0 | 0.03 | 0.02 | 0.05 | 95 | 1009.4 |
| 20260902175232 | 62 | 197 | 3.0 | 9.0 | 0.03 | 0.02 | 0.05 | 95 | 1009.4 |
| 20260902175000 | 62 | 195 | 5.0 | 9.0 | 0.03 | 0.02 | 0.05 | 94 | 1009.4 |
| 20260902174233 | 62 | 199 | 4.0 | 7.0 | 0.02 | 0.02 | 0.04 | 94 | 1009.4 |
| 20260902173733 | 62 | 209 | 4.0 | 9.0 | 0.02 | 0.02 | 0.04 | 94 | 1009.5 |
| 20260902173233 | 62 | 210 | 3.0 | 10.0 | 0.02 | 0.02 | 0.03 | 94 | 1009.5 |
| 20260902172733 | 61 | 213 | 5.0 | 10.0 | 0.01 | 0.02 | 0.02 | 94 | 1009.5 |
| 20260902172456 | 61 | 196 | 5.0 | 7.0 | 0.01 | 0.02 | 0.02 | 94 | 1009.6 |
| 20260902171959 | 61 | 195 | 4.0 | 7.0 | 0.01 | 0.02 | 0.02 | 94 | 1009.7 |
| 20260902171233 | 61 | 182 | 3.0 | 6.0 | 0.00 | 0.02 | 0.02 | 94 | 1009.7 |
| 20260902170732 | 61 | 183 | 2.0 | 7.0 | 0.00 | 0.02 | 0.02 | 94 | 1009.7 |
| 20260902170231 | 61 | 183 | 4.0 | 7.0 | 0.00 | 0.02 | 0.02 | 94 | 1009.8 |
| 20260902165731 | 61 | 169 | 2.0 | 5.0 | 0.00 | 0.02 | 0.02 | 94 | 1009.9 |
| 20260902165230 | 61 | 166 | 2.0 | 5.0 | 0.00 | 0.02 | 0.02 | 94 | 1010.0 |
| 20260902164729 | 61 | 162 | 3.0 | 6.0 | 0.00 | 0.02 | 0.02 | 94 | 1010.1 |
| 20260902164228 | 61 | 158 | 4.0 | 6.0 | 0.00 | 0.02 | 0.02 | 94 | 1010.0 |
| 20260902163727 | 61 | 140 | 3.0 | 6.0 | 0.00 | 0.02 | 0.02 | 94 | 1010.1 |
| 20260902163227 | 61 | 178 | 3.0 | 6.0 | 0.00 | 0.02 | 0.02 | 94 | 1010.0 |
| 20260902162957 | 61 | 178 | 3.0 | 7.0 | 0.00 | 0.02 | 0.02 | 94 | 1010.2 |
| 20260902162228 | 61 | 180 | 3.0 | 7.0 | 0.00 | 0.02 | 0.02 | 94 | 1010.3 |
| 20260902161725 | 61 | 186 | 4.0 | 7.0 | 0.00 | 0.02 | 0.02 | 94 | 1010.5 |
| 20260902161224 | 61 | 193 | 4.0 | 6.0 | 0.00 | 0.02 | 0.02 | 93 | 1010.4 |
| 20260902160726 | 61 | 199 | 3.0 | 6.0 | 0.00 | 0.02 | 0.02 | 93 | 1010.5 |
| 20260902160224 | 61 | 169 | 4.0 | 9.0 | 0.00 | 0.02 | 0.02 | 93 | 1010.4 |
| 20260902155723 | 61 | 173 | 4.0 | 9.0 | 0.00 | 0.02 | 0.02 | 93 | 1010.5 |
| 20260902155449 | 61 | 186 | 4.0 | 9.0 | 0.00 | 0.02 | 0.02 | 93 | 1010.6 |
| 20260902154716 | 61 | 188 | 4.0 | 9.0 | 0.01 | 0.02 | 0.02 | 93 | 1010.7 |
| 20260902154217 | 61 | 195 | 4.0 | 7.0 | 0.01 | 0.02 | 0.02 | 93 | 1010.7 |
| 20260902153716 | 61 | 193 | 4.0 | 10.0 | 0.01 | 0.02 | 0.02 | 93 | 1010.7 |
| 20260902153215 | 61 | 202 | 3.0 | 10.0 | 0.01 | 0.02 | 0.02 | 93 | 1010.7 |
| 20260902152716 | 61 | 195 | 6.0 | 10.0 | 0.02 | 0.02 | 0.02 | 92 | 1010.7 |
| 20260902152215 | 61 | 180 | 5.0 | 14.0 | 0.02 | 0.02 | 0.02 | 92 | 1010.8 |
| 20260902151721 | 62 | 173 | 6.0 | 14.0 | 0.02 | 0.02 | 0.02 | 92 | 1010.8 |
| 20260902151211 | 62 | 183 | 6.0 | 11.0 | 0.02 | 0.02 | 0.02 | 92 | 1010.9 |
| 20260902150712 | 62 | 182 | 4.0 | 9.0 | 0.02 | 0.02 | 0.02 | 92 | 1011.0 |
| 20260902150211 | 62 | 190 | 5.0 | 9.0 | 0.02 | 0.02 | 0.02 | 92 | 1011.0 |
| 20260902145710 | 62 | 179 | 5.0 | 9.0 | 0.02 | 0.00 | 0.02 | 91 | 1011.0 |
| 20260902145216 | 62 | 169 | 4.0 | 10.0 | 0.02 | 0.00 | 0.02 | 91 | 1011.1 |
| 20260902144709 | 62 | 188 | 6.0 | 10.0 | 0.01 | 0.00 | 0.01 | 90 | 1011.2 |
| 20260902144207 | 62 | 125 | 5.0 | 10.0 | 0.01 | 0.00 | 0.01 | 90 | 1011.3 |
| 20260902143708 | 62 | 142 | 5.0 | 11.0 | 0.01 | 0.00 | 0.01 | 89 | 1011.2 |
| 20260902143207 | 62 | 180 | 6.0 | 12.0 | 0.01 | 0.00 | 0.01 | 89 | 1011.3 |
| 20260902142932 | 63 | 185 | 6.0 | 14.0 | 0.00 | 0.00 | 0.00 | 88 | 1011.4 |
| 20260902142203 | 63 | 166 | 7.0 | 14.0 | 0.00 | 0.00 | 0.00 | 88 | 1011.4 |
| 20260902141707 | 63 | 172 | 7.0 | 14.0 | 0.00 | 0.00 | 0.00 | 87 | 1011.5 |
| 20260902140703 | 63 | 159 | 5.0 | 10.0 | 0.00 | 0.00 | 0.00 | 86 | 1011.5 |
| 20260902140203 | 63 | 149 | 6.0 | 12.0 | 0.00 | 0.00 | 0.00 | 86 | 1011.6 |
| 20260902135703 | 63 | 144 | 6.0 | 12.0 | 0.00 | 0.00 | 0.00 | 85 | 1011.7 |
| 20260902135205 | 63 | 182 | 6.0 | 9.0 | 0.00 | 0.00 | 0.00 | 85 | 1011.6 |
| 20260902134704 | 63 | 186 | 5.0 | 9.0 | 0.00 | 0.00 | 0.00 | 84 | 1011.8 |
| 20260902134430 | 63 | 185 | 5.0 | 10.0 | 0.00 | 0.00 | 0.00 | 85 | 1011.9 |
| 20260902133704 | 63 | 168 | 5.0 | 10.0 | 0.00 | 0.00 | 0.00 | 85 | 1011.9 |
| 20260902133204 | 63 | 183 | 5.0 | 13.0 | 0.00 | 0.00 | 0.00 | 85 | 1012.0 |
| 20260902132704 | 63 | 196 | 5.0 | 13.0 | 0.00 | 0.00 | 0.00 | 85 | 1012.1 |
| 20260902132204 | 63 | 144 | 5.0 | 14.0 | 0.00 | 0.00 | 0.00 | 84 | 1012.2 |
| 20260902131705 | 64 | 164 | 7.0 | 14.0 | 0.00 | 0.00 | 0.00 | 83 | 1012.3 |
| 20260902131205 | 64 | 152 | 7.0 | 12.0 | 0.00 | 0.00 | 0.00 | 82 | 1012.4 |
| 20260902130704 | 64 | 224 | 5.0 | 10.0 | 0.00 | 0.00 | 0.00 | 81 | 1012.4 |
| 20260902130204 | 65 | 180 | 5.0 | 14.0 | 0.00 | 0.00 | 0.00 | 81 | 1012.4 |
| 20260902125703 | 65 | 171 | 8.0 | 14.0 | 0.00 | 0.00 | 0.00 | 81 | 1012.5 |
| 20260902125204 | 65 | 172 | 6.0 | 12.0 | 0.00 | 0.00 | 0.00 | 82 | 1012.5 |
| 20260902124928 | 65 | 148 | 6.0 | 14.0 | 0.00 | 0.00 | 0.00 | 83 | 1012.6 |
| 20260902124204 | 64 | 189 | 6.0 | 14.0 | 0.00 | 0.00 | 0.00 | 85 | 1012.6 |
| 20260902123706 | 64 | 189 | 5.0 | 12.0 | 0.00 | 0.00 | 0.00 | 85 | 1012.8 |
| 20260902123205 | 64 | 183 | 5.0 | 10.0 | 0.00 | 0.00 | 0.00 | 84 | 1012.8 |
| 20260902122704 | 64 | 199 | 6.0 | 10.0 | 0.00 | 0.00 | 0.00 | 83 | 1012.7 |
| 20260902121702 | 64 | 230 | 7.0 | 11.0 | 0.00 | 0.00 | 0.00 | 84 | 1012.8 |
| 20260902121203 | 65 | 219 | 5.0 | 9.0 | 0.00 | 0.00 | 0.00 | 84 | 1012.9 |
| 20260902120701 | 65 | 209 | 4.0 | 11.0 | 0.00 | 0.00 | 0.00 | 83 | 1013.0 |
| 20260902120427 | 65 | 196 | 5.0 | 11.0 | 0.00 | 0.00 | 0.00 | 80 | 1013.0 |
| 20260902115704 | 65 | 214 | 4.0 | 11.0 | 0.00 | 0.00 | 0.00 | 79 | 1013.2 |
| 20260902115202 | 65 | 182 | 7.0 | 13.0 | 0.00 | 0.00 | 0.00 | 79 | 1013.2 |
| 20260902114702 | 65 | 197 | 8.0 | 14.0 | 0.00 | 0.00 | 0.00 | 78 | 1013.4 |
| 20260902114204 | 65 | 258 | 8.0 | 14.0 | 0.00 | 0.00 | 0.00 | 77 | 1013.4 |
| 20260902113703 | 65 | 199 | 7.0 | 15.0 | 0.00 | 0.00 | 0.00 | 78 | 1013.4 |
| 20260902113202 | 65 | 221 | 10.0 | 15.0 | 0.00 | 0.00 | 0.00 | 78 | 1013.6 |
| 20260902112710 | 65 | 231 | 9.0 | 15.0 | 0.00 | 0.00 | 0.00 | 77 | 1013.6 |
| 20260902112445 | 65 | 220 | 9.0 | 15.0 | 0.00 | 0.00 | 0.00 | 77 | 1013.5 |
| 20260902111709 | 65 | 212 | 6.0 | 12.0 | 0.00 | 0.00 | 0.00 | 77 | 1013.5 |
| 20260902111202 | 65 | 228 | 7.0 | 14.0 | 0.00 | 0.00 | 0.00 | 77 | 1013.6 |
| 20260902110705 | 65 | 221 | 8.0 | 14.0 | 0.00 | 0.00 | 0.00 | 77 | 1013.7 |
| 20260902110214 | 65 | 220 | 9.0 | 14.0 | 0.00 | 0.00 | 0.00 | 76 | 1013.7 |
| 20260902105701 | 65 | 226 | 6.0 | 12.0 | 0.00 | 0.00 | 0.00 | 79 | 1013.8 |
| 20260902105202 | 65 | 202 | 7.0 | 13.0 | 0.00 | 0.00 | 0.00 | 80 | 1013.8 |
| 20260902104701 | 65 | 244 | 8.0 | 13.0 | 0.00 | 0.00 | 0.00 | 80 | 1013.9 |
| 20260902104427 | 65 | 230 | 6.0 | 12.0 | 0.00 | 0.00 | 0.00 | 79 | 1014.0 |
| 20260902103924 | 65 | 226 | 7.0 | 13.0 | 0.00 | 0.00 | 0.00 | 79 | 1014.0 |
| 20260902103204 | 65 | 223 | 8.0 | 14.0 | 0.00 | 0.00 | 0.00 | 79 | 1013.9 |